Time;durP1;ratioP1;P1;durP2;ratioP2;P2;SDS_P1;SDS_P2;PMS_P1;PMS_P2;Temp;Humidity;BMP_temperature;BMP_pressure;BME280_temperature;BME280_humidity;BME280_pressure;Samples;Min_cycle;Max_cycle;Signal;HPM_P1;HPM_P2
2022/08/05 00:00:07;;;;;;;8.97;8.07;;;19.70;99.90;;;;;;5122881;28;20460;-72
2022/08/05 00:02:56;;;;;;;10.70;7.93;;;19.70;99.90;;;;;;5125181;28;20950;-71
2022/08/05 00:05:46;;;;;;;9.70;7.70;;;19.60;99.90;;;;;;5128061;28;21013;-71
2022/08/05 00:08:54;;;;;;;8.27;7.20;;;19.60;99.90;;;;;;5117949;28;20476;-71
2022/08/05 00:11:44;;;;;;;8.10;7.30;;;19.50;99.90;;;;;;5122970;28;20435;-71
2022/08/05 00:14:42;;;;;;;8.27;7.07;;;19.60;99.90;;;;;;5124643;27;20462;-71
2022/08/05 00:17:32;;;;;;;7.97;6.70;;;19.60;99.90;;;;;;5119980;27;20458;-72
2022/08/05 00:20:20;;;;;;;7.53;6.77;;;19.60;99.90;;;;;;5126109;28;20530;-72
2022/08/05 00:23:17;;;;;;;7.27;5.50;;;19.50;99.90;;;;;;5125690;28;20458;-72
2022/08/05 00:26:25;;;;;;;10.23;6.40;;;19.40;99.90;;;;;;5121396;28;20522;-72
2022/08/05 00:29:14;;;;;;;9.90;5.90;;;19.40;99.90;;;;;;5125119;28;20923;-72
2022/08/05 00:32:03;;;;;;;8.67;5.80;;;19.40;99.90;;;;;;5129318;27;20942;-71
2022/08/05 00:35:00;;;;;;;10.60;5.70;;;19.30;99.90;;;;;;5122880;28;20982;-72
2022/08/05 00:37:56;;;;;;;6.17;4.97;;;19.30;99.90;;;;;;5127318;28;20804;-71
2022/08/05 00:40:50;;;;;;;6.23;4.80;;;19.30;99.90;;;;;;5129906;28;20450;-71
2022/08/05 00:43:40;;;;;;;6.53;4.70;;;19.20;99.90;;;;;;5124248;28;21047;-71
2022/08/05 00:46:37;;;;;;;7.83;4.40;;;19.20;99.90;;;;;;5126446;28;20447;-71
2022/08/05 00:49:30;;;;;;;4.10;3.80;;;19.20;99.90;;;;;;5125824;27;20444;-72
2022/08/05 00:52:31;;;;;;;5.30;4.23;;;19.00;99.90;;;;;;5117201;28;20864;-71
2022/08/05 00:55:26;;;;;;;5.87;3.87;;;19.00;99.90;;;;;;5122428;28;20466;-71
2022/08/05 00:58:31;;;;;;;4.30;3.90;;;18.90;99.90;;;;;;5121488;27;20459;-71
2022/08/05 01:01:19;;;;;;;6.20;3.80;;;19.00;99.90;;;;;;5122475;27;20510;-71
2022/08/05 01:04:27;;;;;;;4.30;3.90;;;18.90;99.90;;;;;;5121475;27;20466;-72
2022/08/05 01:07:17;;;;;;;3.77;3.30;;;19.00;99.90;;;;;;5122993;27;21098;-72
2022/08/05 01:10:07;;;;;;;4.67;4.27;;;18.90;99.90;;;;;;5123845;27;20512;-71
2022/08/05 01:13:03;;;;;;;4.93;3.30;;;18.90;99.90;;;;;;5119053;27;20538;-71
2022/08/05 01:16:04;;;;;;;4.77;4.00;;;18.90;99.90;;;;;;5122173;27;20467;-72
2022/08/05 01:18:57;;;;;;;5.13;4.00;;;18.90;99.90;;;;;;5122604;27;20911;-72
2022/08/05 01:22:14;;;;;;;3.87;3.40;;;18.90;99.90;;;;;;5123666;27;20472;-71
2022/08/05 01:25:47;;;;;;;5.53;3.70;;;18.90;99.90;;;;;;5119589;27;20471;-72
2022/08/05 01:28:49;;;;;;;5.40;3.67;;;18.90;99.90;;;;;;5127844;27;20465;-71
2022/08/05 01:31:41;;;;;;;4.77;3.50;;;18.90;99.90;;;;;;5124812;27;20471;-71
2022/08/05 01:34:37;;;;;;;6.73;3.87;;;18.90;99.90;;;;;;5118430;27;20465;-71
2022/08/05 01:37:33;;;;;;;4.00;3.63;;;18.90;99.90;;;;;;5118801;27;20872;-70
2022/08/05 01:40:28;;;;;;;4.40;4.00;;;18.90;99.90;;;;;;5120704;27;20451;-71
2022/08/05 01:43:17;;;;;;;3.80;3.60;;;18.90;99.90;;;;;;5119812;27;20559;-71
2022/08/05 01:46:12;;;;;;;4.13;3.40;;;18.90;99.90;;;;;;5120392;27;20588;-72
2022/08/05 01:49:23;;;;;;;3.80;3.30;;;18.90;99.90;;;;;;5121169;27;20450;-71
2022/08/05 01:52:13;;;;;;;3.50;3.20;;;18.80;99.90;;;;;;5116722;27;20962;-72
2022/08/05 01:55:09;;;;;;;4.43;3.33;;;18.80;99.90;;;;;;5120570;27;20479;-71
2022/08/05 01:57:57;;;;;;;4.33;3.93;;;18.90;99.90;;;;;;5129265;27;20502;-71
2022/08/05 02:01:04;;;;;;;4.43;3.27;;;18.80;99.90;;;;;;5123234;27;20455;-71
2022/08/05 02:06:32;;;;;;;3.60;3.30;;;18.80;99.90;;;;;;5102531;28;20487;-70
2022/08/05 02:09:26;;;;;;;4.03;2.93;;;18.80;99.90;;;;;;5108946;28;20486;-71
2022/08/05 02:12:24;;;;;;;3.30;2.97;;;18.80;99.90;;;;;;5109287;28;20510;-71
2022/08/05 02:15:17;;;;;;;3.00;2.70;;;18.80;99.90;;;;;;5112522;28;20600;-72
2022/08/05 02:18:10;;;;;;;3.20;2.90;;;18.80;99.90;;;;;;5111263;28;20446;-70
2022/08/05 02:21:25;;;;;;;7.60;3.30;;;18.80;99.90;;;;;;5105395;28;20453;-70
2022/08/05 02:24:26;;;;;;;4.97;3.10;;;18.80;99.90;;;;;;5105837;28;20488;-71
2022/08/05 02:27:15;;;;;;;3.20;2.90;;;18.80;99.90;;;;;;5110129;28;20481;-71
2022/08/05 02:30:05;;;;;;;4.13;2.97;;;18.80;99.90;;;;;;5103953;28;20546;-71
2022/08/05 02:32:57;;;;;;;3.20;2.90;;;18.80;99.90;;;;;;5107792;28;20973;-71
2022/08/05 02:35:46;;;;;;;3.20;2.60;;;18.70;99.90;;;;;;5108813;28;21101;-70
2022/08/05 02:38:47;;;;;;;3.33;3.03;;;18.80;99.90;;;;;;5104599;27;20443;-70
2022/08/05 02:41:43;;;;;;;3.27;3.00;;;18.80;99.90;;;;;;5099822;28;20828;-71
2022/08/05 02:44:49;;;;;;;3.30;3.00;;;18.70;99.90;;;;;;5109741;28;20471;-71
2022/08/05 02:47:39;;;;;;;4.53;3.00;;;18.70;99.90;;;;;;5101120;27;20510;-70
2022/08/05 02:50:50;;;;;;;3.70;3.50;;;18.70;99.90;;;;;;5103141;28;20440;-70
2022/08/05 02:53:39;;;;;;;3.93;3.63;;;18.70;99.90;;;;;;5107592;28;20533;-70
2022/08/05 02:56:28;;;;;;;4.27;3.40;;;18.80;99.90;;;;;;5100879;28;20609;-70
2022/08/05 02:59:21;;;;;;;5.57;3.90;;;18.60;99.90;;;;;;5103970;28;20990;-70
2022/08/05 03:02:17;;;;;;;4.63;3.73;;;18.60;99.90;;;;;;5106277;28;20607;-70
2022/08/05 03:05:09;;;;;;;6.90;4.27;;;18.60;99.90;;;;;;5094953;28;21066;-71
2022/08/05 03:07:57;;;;;;;5.60;3.53;;;18.60;99.90;;;;;;5108446;27;20935;-70
2022/08/05 03:10:55;;;;;;;5.53;4.00;;;18.60;99.90;;;;;;5103336;28;20967;-71
2022/08/05 03:14:03;;;;;;;5.63;3.50;;;18.50;99.90;;;;;;5105637;28;20447;-70
2022/08/05 03:16:56;;;;;;;5.97;3.90;;;18.50;99.90;;;;;;5099255;28;20496;-70
2022/08/05 03:19:46;;;;;;;4.20;3.83;;;18.50;99.90;;;;;;5110011;28;21005;-71
2022/08/05 03:22:36;;;;;;;4.13;3.60;;;18.40;99.90;;;;;;5102253;28;20463;-70
2022/08/05 03:25:32;;;;;;;5.00;3.80;;;18.40;99.90;;;;;;5104282;28;20478;-70
2022/08/05 03:28:40;;;;;;;6.17;4.07;;;18.30;99.90;;;;;;5102525;28;20447;-70
2022/08/05 03:31:29;;;;;;;6.00;4.17;;;18.30;99.90;;;;;;5098712;28;20436;-70
2022/08/05 03:34:39;;;;;;;4.10;3.80;;;18.30;99.90;;;;;;5105598;27;20859;-70
2022/08/05 03:37:30;;;;;;;4.33;3.90;;;18.30;99.90;;;;;;5105262;28;20952;-70
2022/08/05 03:40:33;;;;;;;4.37;3.97;;;18.30;99.90;;;;;;5100666;28;20977;-70
2022/08/05 03:43:24;;;;;;;4.50;4.10;;;18.20;99.90;;;;;;5102221;28;20483;-70
2022/08/05 03:46:32;;;;;;;4.00;3.60;;;18.20;99.90;;;;;;5105438;28;20446;-70
2022/08/05 03:49:20;;;;;;;4.10;3.80;;;18.20;99.90;;;;;;5098740;28;20474;-70
2022/08/05 03:52:35;;;;;;;5.70;3.67;;;18.20;99.90;;;;;;5101878;28;20985;-71
2022/08/05 03:55:50;;;;;;;3.83;3.57;;;18.10;99.90;;;;;;5098233;28;20457;-70
2022/08/05 03:59:02;;;;;;;4.43;4.03;;;18.10;99.90;;;;;;5091233;28;20824;-70
2022/08/05 04:01:55;;;;;;;4.00;3.70;;;18.10;99.90;;;;;;5097468;28;20506;-70
2022/08/05 04:04:46;;;;;;;4.47;3.97;;;18.00;99.90;;;;;;5098192;28;20592;-70
2022/08/05 04:07:38;;;;;;;4.53;4.13;;;18.00;99.90;;;;;;5105118;28;20896;-71
2022/08/05 04:10:45;;;;;;;4.47;3.60;;;18.00;99.90;;;;;;5101712;28;21020;-70
2022/08/05 04:13:39;;;;;;;5.97;4.50;;;17.90;99.90;;;;;;5099578;28;20849;-70
2022/08/05 04:16:38;;;;;;;5.30;4.33;;;17.90;99.90;;;;;;5101998;28;20579;-71
2022/08/05 04:19:27;;;;;;;4.90;4.47;;;17.90;99.90;;;;;;5102349;28;20456;-70
2022/08/05 04:22:15;;;;;;;6.80;5.00;;;17.90;99.90;;;;;;5091729;28;21025;-71
2022/08/05 04:25:10;;;;;;;5.30;4.00;;;17.90;99.90;;;;;;5101805;28;20472;-71
2022/08/05 04:28:02;;;;;;;4.60;4.30;;;17.90;99.90;;;;;;5099517;28;20971;-70
2022/08/05 04:31:00;;;;;;;3.77;3.47;;;17.90;99.90;;;;;;5104390;28;20445;-70
2022/08/05 04:33:55;;;;;;;4.37;3.97;;;17.80;99.90;;;;;;5103761;28;20538;-70
2022/08/05 04:37:04;;;;;;;4.43;4.10;;;17.70;99.90;;;;;;5109871;28;20445;-70
2022/08/05 04:39:52;;;;;;;6.17;4.53;;;17.70;99.90;;;;;;5103874;28;20941;-70
2022/08/05 04:42:44;;;;;;;5.30;4.80;;;17.70;99.90;;;;;;5097384;28;21074;-71
2022/08/05 04:45:34;;;;;;;4.97;4.47;;;17.70;99.90;;;;;;5101435;27;20460;-70
2022/08/05 04:48:38;;;;;;;5.17;4.73;;;17.60;99.90;;;;;;5100920;27;20962;-70
2022/08/05 04:51:29;;;;;;;5.30;4.80;;;17.50;99.90;;;;;;5099199;28;20444;-71
2022/08/05 04:54:18;;;;;;;5.07;4.57;;;17.60;99.90;;;;;;5101815;28;20464;-70
2022/08/05 04:57:06;;;;;;;5.47;4.93;;;17.50;99.90;;;;;;5102228;28;20542;-70
2022/08/05 04:59:57;;;;;;;6.20;5.60;;;17.40;99.90;;;;;;5095375;27;20853;-73
2022/08/05 05:02:45;;;;;;;5.00;4.50;;;17.40;99.90;;;;;;5106006;28;20457;-73
2022/08/05 05:05:34;;;;;;;5.27;4.77;;;17.50;99.90;;;;;;5107305;28;20482;-72
2022/08/05 05:08:42;;;;;;;7.53;5.03;;;17.50;99.90;;;;;;5104983;28;20519;-73
2022/08/05 05:11:37;;;;;;;5.80;5.20;;;17.60;99.90;;;;;;5110415;28;20435;-73
2022/08/05 05:14:42;;;;;;;6.00;5.47;;;17.60;99.90;;;;;;5105590;28;20552;-73
2022/08/05 05:17:42;;;;;;;5.87;4.87;;;17.60;99.90;;;;;;5090184;28;20452;-73
2022/08/05 05:20:45;;;;;;;5.67;5.17;;;17.60;99.90;;;;;;5101459;27;20488;-73
2022/08/05 05:23:36;;;;;;;5.93;5.33;;;17.60;99.90;;;;;;5088813;27;20488;-72
2022/08/05 05:26:45;;;;;;;6.53;5.70;;;17.60;99.90;;;;;;5098579;28;20542;-73
2022/08/05 05:29:38;;;;;;;7.23;5.90;;;17.60;99.90;;;;;;5092113;28;23576;-73
2022/08/05 05:32:48;;;;;;;5.83;5.43;;;17.60;99.90;;;;;;5086836;28;20551;-73
2022/08/05 05:35:36;;;;;;;5.33;4.93;;;17.70;99.90;;;;;;5096145;27;20522;-73
2022/08/05 05:38:29;;;;;;;5.70;5.27;;;17.60;99.90;;;;;;5081745;28;20448;-73
2022/08/05 05:41:17;;;;;;;6.10;5.57;;;17.70;99.90;;;;;;5095067;28;20997;-72
2022/08/05 05:44:06;;;;;;;6.80;5.30;;;17.70;99.90;;;;;;5093550;27;20471;-73
2022/08/05 05:47:14;;;;;;;6.03;5.53;;;17.70;99.90;;;;;;5096961;28;20440;-73
2022/08/05 05:50:11;;;;;;;5.87;5.27;;;17.70;99.90;;;;;;5093812;27;20515;-73
2022/08/05 05:53:07;;;;;;;7.10;5.00;;;17.70;99.90;;;;;;5105003;28;20887;-72
2022/08/05 05:56:09;;;;;;;6.90;5.47;;;17.70;99.90;;;;;;5097853;27;20585;-72
2022/08/05 05:58:58;;;;;;;5.77;5.37;;;17.70;99.90;;;;;;5105179;27;20502;-73
2022/08/05 06:01:50;;;;;;;5.60;5.20;;;17.70;99.90;;;;;;5094200;28;20445;-73
2022/08/05 06:04:44;;;;;;;6.00;5.50;;;17.70;99.90;;;;;;5080924;28;20481;-72
2022/08/05 06:07:38;;;;;;;6.10;5.60;;;17.70;99.90;;;;;;5091627;27;20459;-72
2022/08/05 06:10:29;;;;;;;6.80;5.90;;;17.70;99.90;;;;;;5100002;28;20830;-72
2022/08/05 06:13:36;;;;;;;5.67;5.10;;;17.60;99.90;;;;;;5096678;28;20463;-73
2022/08/05 06:16:37;;;;;;;5.90;5.30;;;17.70;99.90;;;;;;5109776;28;20467;-72
2022/08/05 06:19:26;;;;;;;5.67;5.13;;;17.80;99.90;;;;;;5116373;27;21139;-72
2022/08/05 06:22:24;;;;;;;6.17;5.67;;;17.70;99.90;;;;;;5116978;28;20456;-72
2022/08/05 06:25:14;;;;;;;6.33;5.73;;;17.80;99.90;;;;;;5115340;28;20575;-72
2022/08/05 06:28:22;;;;;;;6.23;5.40;;;17.80;99.90;;;;;;5112435;28;20924;-72
2022/08/05 06:31:15;;;;;;;9.50;6.13;;;17.80;99.90;;;;;;5112027;28;20460;-72
2022/08/05 06:34:08;;;;;;;6.27;5.67;;;17.90;99.90;;;;;;5103842;28;20448;-72
2022/08/05 06:36:57;;;;;;;5.70;5.20;;;17.90;99.90;;;;;;5091940;28;20452;-72
2022/08/05 06:39:46;;;;;;;6.00;5.50;;;17.90;99.90;;;;;;5092920;27;20437;-72
2022/08/05 06:42:36;;;;;;;6.00;5.60;;;18.00;99.90;;;;;;5100682;27;20444;-70
2022/08/05 06:45:27;;;;;;;7.40;5.50;;;18.00;99.90;;;;;;5096635;27;20480;-70
2022/08/05 06:48:38;;;;;;;6.07;5.53;;;18.00;99.90;;;;;;5079204;28;20459;-70
2022/08/05 06:51:46;;;;;;;6.20;5.50;;;18.00;99.90;;;;;;5092332;28;20455;-70
2022/08/05 06:54:34;;;;;;;5.47;5.00;;;18.10;99.90;;;;;;5088834;28;20473;-70
2022/08/05 06:57:23;;;;;;;6.50;5.90;;;18.10;99.90;;;;;;5091191;28;20465;-70
2022/08/05 07:00:32;;;;;;;6.23;5.73;;;18.10;99.90;;;;;;5089828;28;20460;-70
2022/08/05 07:03:33;;;;;;;5.77;5.27;;;18.20;99.90;;;;;;5077419;27;20448;-70
2022/08/05 07:06:24;;;;;;;5.80;5.20;;;18.30;99.90;;;;;;5089486;28;20456;-70
2022/08/05 07:09:15;;;;;;;5.70;5.20;;;18.30;99.90;;;;;;5093860;28;20542;-70
2022/08/05 07:12:07;;;;;;;5.70;5.13;;;18.30;99.90;;;;;;5090501;28;20455;-70
2022/08/05 07:18:23;;;;;;;7.13;5.20;;;18.50;99.90;;;;;;5100558;27;20451;-70
2022/08/05 07:21:17;;;;;;;5.17;4.77;;;18.50;99.90;;;;;;5091141;28;20445;-71
2022/08/05 07:24:13;;;;;;;5.07;4.67;;;18.50;99.90;;;;;;5085692;27;20992;-70
2022/08/05 07:27:01;;;;;;;5.20;4.67;;;18.50;99.90;;;;;;5094005;27;20497;-70
2022/08/05 07:29:50;;;;;;;7.07;4.80;;;18.50;99.90;;;;;;5080685;27;20531;-70
2022/08/05 07:32:58;;;;;;;4.33;3.97;;;18.50;99.90;;;;;;5085884;28;20527;-70
2022/08/05 07:35:48;;;;;;;4.87;4.47;;;18.50;99.90;;;;;;5098348;28;20601;-70
2022/08/05 07:38:56;;;;;;;5.20;4.70;;;18.40;99.90;;;;;;5084407;28;20600;-69
2022/08/05 07:41:44;;;;;;;5.40;4.90;;;18.40;99.90;;;;;;5078898;28;22232;-70
2022/08/05 07:44:52;;;;;;;6.20;4.50;;;18.40;99.90;;;;;;5079626;28;20473;-70
2022/08/05 07:47:42;;;;;;;5.20;4.80;;;18.40;99.90;;;;;;5088214;28;20441;-70
2022/08/05 07:50:30;;;;;;;6.20;4.83;;;18.40;99.90;;;;;;5086309;27;20877;-70
2022/08/05 07:53:22;;;;;;;4.97;4.50;;;18.50;99.90;;;;;;5078986;28;20464;-70
2022/08/05 07:56:23;;;;;;;5.77;5.00;;;18.50;99.90;;;;;;5093278;28;20455;-70
2022/08/05 07:59:31;;;;;;;5.40;4.83;;;18.40;99.90;;;;;;5091542;28;20963;-70
2022/08/05 08:02:29;;;;;;;6.47;4.77;;;18.50;99.90;;;;;;5078599;28;20879;-70
2022/08/05 08:05:37;;;;;;;5.10;4.60;;;18.40;99.90;;;;;;5091768;22;20577;-77
2022/08/05 08:08:28;;;;;;;4.60;4.20;;;18.30;99.90;;;;;;5071923;28;20460;-77
2022/08/05 08:11:16;;;;;;;5.03;4.53;;;18.40;99.90;;;;;;5073660;28;20476;-74
2022/08/05 08:14:14;;;;;;;5.90;4.40;;;18.40;99.90;;;;;;5066322;28;20488;-75
2022/08/05 08:17:09;;;;;;;4.97;4.50;;;18.40;99.90;;;;;;5044696;28;20469;-76
2022/08/05 08:20:15;;;;;;;4.50;4.20;;;18.40;99.90;;;;;;5053320;28;21050;-76
2022/08/05 08:23:23;;;;;;;5.00;4.37;;;18.40;99.90;;;;;;5056356;28;20459;-76
2022/08/05 08:26:33;;;;;;;4.93;4.43;;;18.50;99.90;;;;;;5055082;28;20576;-76
2022/08/05 08:29:21;;;;;;;4.60;4.20;;;18.50;99.90;;;;;;5060717;28;20451;-76
2022/08/05 08:32:29;;;;;;;4.70;4.30;;;18.40;99.90;;;;;;5047266;28;20507;-76
2022/08/05 08:35:19;;;;;;;5.93;5.13;;;18.40;99.90;;;;;;5049367;28;20930;-76
2022/08/05 08:38:15;;;;;;;5.70;4.93;;;18.40;99.90;;;;;;5053677;28;21625;-76
2022/08/05 08:41:19;;;;;;;5.33;4.87;;;18.40;99.90;;;;;;5055780;28;21003;-76
2022/08/05 08:44:16;;;;;;;4.60;4.20;;;18.40;99.90;;;;;;5044757;28;21082;-76
2022/08/05 08:47:27;;;;;;;5.90;5.40;;;18.40;99.90;;;;;;5053337;28;21297;-76
2022/08/05 08:50:39;;;;;;;5.80;4.93;;;18.40;99.90;;;;;;5049381;28;20498;-76
2022/08/05 08:53:48;;;;;;;7.03;4.87;;;18.40;99.90;;;;;;5054977;28;20999;-76
2022/08/05 08:56:39;;;;;;;4.60;4.27;;;18.40;99.90;;;;;;5057007;28;20472;-76
2022/08/05 08:59:38;;;;;;;5.13;4.70;;;18.40;99.90;;;;;;5047728;28;20462;-75
2022/08/05 09:02:34;;;;;;;4.80;4.30;;;18.40;99.90;;;;;;5061766;28;20453;-75
2022/08/05 09:05:23;;;;;;;4.80;4.50;;;18.40;99.90;;;;;;5052474;28;20485;-75
2022/08/05 09:08:34;;;;;;;4.80;4.40;;;18.40;99.90;;;;;;5052761;28;20461;-76
2022/08/05 09:11:27;;;;;;;4.97;4.57;;;18.50;99.90;;;;;;5055807;28;20446;-75
2022/08/05 09:14:38;;;;;;;4.30;3.90;;;18.50;99.90;;;;;;5049366;28;20477;-75
2022/08/05 09:17:46;;;;;;;5.17;4.20;;;18.50;99.90;;;;;;5049817;28;20798;-75
2022/08/05 09:20:37;;;;;;;4.70;4.40;;;18.40;99.90;;;;;;5045420;28;21263;-74
2022/08/05 09:23:26;;;;;;;4.37;3.97;;;18.40;99.90;;;;;;5039407;28;20451;-74
2022/08/05 09:26:30;;;;;;;3.93;3.63;;;18.40;99.90;;;;;;5047330;28;20477;-75
2022/08/05 09:29:19;;;;;;;4.57;4.27;;;18.50;99.90;;;;;;5052367;28;20461;-74
2022/08/05 09:32:20;;;;;;;4.10;3.70;;;18.50;99.90;;;;;;5051647;28;20468;-74
2022/08/05 09:35:28;;;;;;;4.20;3.90;;;18.50;99.90;;;;;;5046467;28;20474;-74
2022/08/05 09:38:18;;;;;;;6.80;4.70;;;18.40;99.90;;;;;;5053770;28;20466;-74
2022/08/05 09:41:16;;;;;;;4.60;4.30;;;18.40;99.90;;;;;;5029401;28;20455;-74
2022/08/05 09:44:06;;;;;;;4.87;4.47;;;18.40;99.90;;;;;;5056550;28;20460;-76
2022/08/05 09:47:08;;;;;;;5.40;4.13;;;18.50;99.90;;;;;;5046797;28;21314;-74
2022/08/05 09:50:01;;;;;;;4.30;4.00;;;18.50;99.90;;;;;;5047526;28;20465;-74
2022/08/05 09:52:57;;;;;;;4.27;3.87;;;18.50;99.90;;;;;;5047524;28;20450;-75
2022/08/05 09:55:46;;;;;;;4.30;3.90;;;18.50;99.90;;;;;;5047082;28;20548;-75
2022/08/05 09:59:01;;;;;;;3.87;3.57;;;18.50;99.90;;;;;;5053811;28;20483;-75
2022/08/05 10:02:05;;;;;;;4.23;3.80;;;18.60;99.90;;;;;;5053976;28;21173;-77
2022/08/05 10:04:53;;;;;;;4.30;3.90;;;18.60;99.90;;;;;;5053335;28;20650;-76
2022/08/05 10:07:49;;;;;;;3.80;3.50;;;18.60;99.90;;;;;;5045343;28;20535;-75
2022/08/05 10:10:58;;;;;;;4.10;3.73;;;18.60;99.90;;;;;;5055988;28;20497;-77
2022/08/05 10:13:47;;;;;;;3.50;3.30;;;18.60;99.90;;;;;;5053045;28;20452;-77
2022/08/05 10:16:36;;;;;;;4.00;3.77;;;18.60;99.90;;;;;;5055014;28;20878;-76
2022/08/05 10:19:43;;;;;;;3.93;3.63;;;18.50;99.90;;;;;;5053291;28;20446;-78
2022/08/05 10:22:53;;;;;;;3.90;3.50;;;18.50;99.90;;;;;;5056893;28;20849;-76
2022/08/05 10:25:45;;;;;;;3.83;3.53;;;18.50;99.90;;;;;;5057147;28;20474;-76
2022/08/05 10:28:35;;;;;;;4.23;3.70;;;18.50;99.90;;;;;;5058432;28;20463;-77
2022/08/05 10:31:24;;;;;;;3.40;3.20;;;18.50;99.90;;;;;;5044299;28;20492;-76
2022/08/05 10:34:32;;;;;;;3.60;3.30;;;18.40;99.90;;;;;;5045555;28;20511;-76
2022/08/05 10:37:21;;;;;;;4.20;3.63;;;18.40;99.90;;;;;;5052202;28;20520;-75
2022/08/05 10:40:25;;;;;;;3.40;3.20;;;18.40;99.90;;;;;;5042748;28;20459;-75
2022/08/05 10:43:28;;;;;;;3.93;3.33;;;18.40;99.90;;;;;;5046575;28;20449;-77
2022/08/05 10:46:21;;;;;;;3.47;3.17;;;18.40;99.90;;;;;;5050802;28;20518;-74
2022/08/05 10:49:11;;;;;;;3.70;3.40;;;18.40;99.90;;;;;;5047818;28;20468;-75
2022/08/05 10:52:04;;;;;;;3.20;2.90;;;18.30;99.90;;;;;;5049100;28;21155;-74
2022/08/05 10:55:04;;;;;;;3.93;3.63;;;18.30;99.90;;;;;;5053521;28;20512;-76
2022/08/05 10:58:10;;;;;;;3.57;3.30;;;18.30;99.90;;;;;;5056694;28;20596;-77
2022/08/05 11:01:05;;;;;;;5.77;3.67;;;18.20;99.90;;;;;;5052530;28;20458;-77
2022/08/05 11:04:07;;;;;;;3.93;3.57;;;18.30;99.90;;;;;;5057450;28;20922;-75
2022/08/05 11:07:07;;;;;;;4.17;3.03;;;18.20;99.90;;;;;;5054415;28;20486;-75
2022/08/05 11:09:56;;;;;;;3.10;2.30;;;18.20;99.90;;;;;;5052549;28;20457;-75
2022/08/05 11:12:58;;;;;;;2.97;2.03;;;18.20;99.90;;;;;;5048578;28;20454;-74
2022/08/05 11:16:09;;;;;;;1.87;1.77;;;18.10;99.90;;;;;;5053597;28;21035;-74
2022/08/05 11:19:27;;;;;;;3.07;2.27;;;18.00;99.90;;;;;;5058030;28;20464;-74
2022/08/05 11:22:43;;;;;;;2.30;2.10;;;18.00;99.90;;;;;;5049235;28;20833;-72
2022/08/05 11:25:42;;;;;;;2.67;2.17;;;18.00;99.90;;;;;;5049394;28;20598;-74
2022/08/05 11:28:52;;;;;;;3.73;2.07;;;17.90;99.90;;;;;;5059512;28;20940;-72
2022/08/05 11:31:43;;;;;;;2.93;2.00;;;17.90;99.90;;;;;;5046170;28;20972;-74
2022/08/05 11:34:47;;;;;;;2.10;1.90;;;17.90;99.90;;;;;;5043211;28;20539;-74
2022/08/05 11:37:43;;;;;;;2.60;2.03;;;17.90;99.90;;;;;;5048607;28;20458;-74
2022/08/05 11:41:00;;;;;;;2.00;1.70;;;17.80;99.90;;;;;;5055475;28;20454;-74
2022/08/05 11:44:11;;;;;;;2.00;1.80;;;17.80;99.90;;;;;;5046762;28;20474;-72
2022/08/05 11:47:24;;;;;;;3.13;1.80;;;17.80;99.90;;;;;;5045426;28;21084;-76
2022/08/05 11:50:38;;;;;;;3.17;1.90;;;17.80;99.90;;;;;;5054827;28;20824;-73
2022/08/05 11:53:27;;;;;;;2.40;2.20;;;17.80;99.90;;;;;;5060123;28;20599;-77
2022/08/05 11:56:44;;;;;;;2.70;2.23;;;17.70;99.90;;;;;;5049064;28;20541;-75
2022/08/05 11:59:37;;;;;;;2.80;2.43;;;17.70;99.90;;;;;;5052905;28;20446;-74
2022/08/05 12:02:38;;;;;;;2.73;2.53;;;17.70;99.90;;;;;;5053348;28;20488;-72
2022/08/05 12:05:31;;;;;;;2.93;2.63;;;17.70;99.90;;;;;;5053660;28;20477;-74
2022/08/05 12:08:27;;;;;;;3.20;2.47;;;17.70;99.90;;;;;;5055762;28;20623;-72
2022/08/05 12:11:20;;;;;;;3.57;3.23;;;17.70;99.90;;;;;;5056244;28;20458;-73
2022/08/05 12:14:09;;;;;;;4.27;2.87;;;17.80;99.90;;;;;;5043237;28;20446;-76
2022/08/05 12:16:57;;;;;;;3.57;3.00;;;17.80;99.90;;;;;;5050432;28;20972;-74
2022/08/05 12:19:51;;;;;;;4.70;3.33;;;17.90;99.90;;;;;;5055249;28;20446;-74
2022/08/05 12:23:09;;;;;;;3.13;2.80;;;17.90;99.90;;;;;;5050212;28;20460;-73
2022/08/05 12:25:57;;;;;;;4.17;3.70;;;17.90;99.90;;;;;;5058456;28;20993;-74
2022/08/05 12:28:46;;;;;;;4.00;3.60;;;18.00;99.90;;;;;;5048138;28;20523;-75
2022/08/05 12:31:36;;;;;;;5.43;4.10;;;18.00;99.90;;;;;;5049701;28;20979;-75
2022/08/05 12:34:38;;;;;;;3.90;3.60;;;18.00;99.90;;;;;;5050499;28;20489;-74
2022/08/05 12:37:28;;;;;;;4.50;4.10;;;18.10;99.90;;;;;;5050187;28;20452;-74
2022/08/05 12:40:23;;;;;;;4.43;4.03;;;18.10;99.90;;;;;;5050965;28;20558;-74
2022/08/05 12:43:17;;;;;;;3.70;3.40;;;18.10;99.90;;;;;;5052072;28;20853;-74
2022/08/05 12:46:21;;;;;;;3.30;2.90;;;18.20;99.90;;;;;;5050543;28;20476;-74
2022/08/05 12:49:16;;;;;;;3.00;2.80;;;18.30;99.90;;;;;;5053442;28;20536;-74
2022/08/05 12:52:13;;;;;;;3.20;2.97;;;18.30;99.90;;;;;;5061144;28;20455;-75
2022/08/05 12:55:21;;;;;;;3.73;3.10;;;18.40;99.90;;;;;;5064968;28;20482;-76
2022/08/05 12:58:23;;;;;;;3.43;3.13;;;18.50;99.90;;;;;;5065665;28;20461;-76
2022/08/05 13:01:32;;;;;;;3.10;2.80;;;18.50;99.90;;;;;;5062319;28;20532;-75
2022/08/05 13:04:41;;;;;;;3.53;3.23;;;18.70;99.90;;;;;;5062176;28;20977;-74
2022/08/05 13:07:45;;;;;;;4.40;2.73;;;18.80;99.90;;;;;;5056717;28;20474;-74
2022/08/05 13:10:50;;;;;;;3.20;2.63;;;19.00;99.90;;;;;;5062282;28;20453;-73
2022/08/05 13:13:39;;;;;;;3.63;2.63;;;19.20;99.90;;;;;;5054468;28;20450;-73
2022/08/05 13:16:49;;;;;;;2.80;2.60;;;19.30;99.90;;;;;;5050362;28;20453;-74
2022/08/05 13:19:38;;;;;;;3.40;2.70;;;19.40;99.90;;;;;;5054053;28;20926;-73
2022/08/05 13:22:42;;;;;;;2.60;2.40;;;19.60;99.90;;;;;;5052194;28;20536;-74
2022/08/05 13:25:30;;;;;;;2.57;1.97;;;19.80;99.90;;;;;;5065111;28;20842;-73
2022/08/05 13:28:40;;;;;;;2.17;1.60;;;19.90;99.90;;;;;;5053365;28;20491;-74
2022/08/05 13:31:31;;;;;;;1.93;1.63;;;20.10;99.90;;;;;;5056428;28;20453;-74
2022/08/05 13:34:39;;;;;;;1.50;1.40;;;20.20;99.90;;;;;;5055435;28;23265;-72
2022/08/05 13:37:28;;;;;;;1.50;1.40;;;20.30;99.90;;;;;;5039615;28;21482;-71
2022/08/05 13:40:22;;;;;;;2.63;1.80;;;20.40;99.90;;;;;;5057389;28;20985;-72
2022/08/05 13:43:30;;;;;;;2.10;1.90;;;20.50;99.90;;;;;;5043192;28;20648;-72
2022/08/05 13:46:40;;;;;;;2.60;2.13;;;20.60;99.90;;;;;;5055304;28;20839;-71
2022/08/05 13:49:48;;;;;;;2.60;1.97;;;20.70;99.90;;;;;;5046209;28;20542;-72
2022/08/05 13:52:37;;;;;;;2.10;2.00;;;20.80;99.90;;;;;;5042133;28;21074;-72
2022/08/05 13:55:25;;;;;;;3.30;1.80;;;21.00;99.90;;;;;;5056508;28;20542;-72
2022/08/05 13:58:33;;;;;;;1.80;1.70;;;21.10;99.90;;;;;;5055158;28;20450;-72
2022/08/05 14:01:26;;;;;;;2.27;1.87;;;21.30;99.90;;;;;;5058015;28;20454;-72
2022/08/05 14:07:45;;;;;;;1.63;1.53;;;21.70;99.90;;;;;;5076371;22;21272;-68
2022/08/05 14:10:52;;;;;;;2.73;1.60;;;21.60;99.90;;;;;;5065730;28;20457;-67
2022/08/05 14:13:50;;;;;;;3.83;2.00;;;21.50;99.90;;;;;;5062119;28;20465;-70
2022/08/05 14:16:43;;;;;;;1.80;1.60;;;21.50;99.90;;;;;;5063822;28;20450;-68
2022/08/05 14:19:38;;;;;;;2.17;1.70;;;21.50;99.90;;;;;;5041417;28;20458;-69
2022/08/05 14:22:44;;;;;;;2.30;2.10;;;21.40;99.90;;;;;;5037874;28;20521;-69
2022/08/05 14:25:41;;;;;;;2.73;1.97;;;21.50;99.90;;;;;;5048117;28;20460;-69
2022/08/05 14:28:32;;;;;;;2.40;2.20;;;21.60;99.90;;;;;;5046360;28;20529;-68
2022/08/05 14:31:21;;;;;;;2.50;1.80;;;21.60;99.90;;;;;;5047395;28;20454;-69
2022/08/05 14:34:29;;;;;;;2.13;1.93;;;21.60;99.90;;;;;;5044258;28;20449;-69
2022/08/05 14:37:24;;;;;;;2.70;2.50;;;21.50;99.90;;;;;;5028448;28;20509;-69
2022/08/05 14:40:32;;;;;;;3.17;2.83;;;21.40;99.90;;;;;;5032005;28;20478;-69
2022/08/05 14:43:21;;;;;;;3.27;2.63;;;21.20;99.90;;;;;;5031417;28;20453;-68
2022/08/05 14:46:30;;;;;;;4.50;2.93;;;21.20;99.90;;;;;;5037453;28;20455;-68
2022/08/05 14:49:18;;;;;;;3.67;2.43;;;21.20;99.90;;;;;;5057214;28;20490;-69
2022/08/05 14:52:08;;;;;;;2.97;2.77;;;21.20;99.90;;;;;;5055788;28;20447;-68
2022/08/05 14:55:08;;;;;;;3.30;2.80;;;21.10;99.90;;;;;;5039221;28;20470;-68
2022/08/05 14:58:02;;;;;;;3.63;2.17;;;21.20;99.90;;;;;;5048341;28;20858;-70
2022/08/05 15:01:01;;;;;;;3.60;2.43;;;21.40;99.90;;;;;;5052661;28;20497;-68
2022/08/05 15:03:50;;;;;;;4.60;2.50;;;21.50;99.90;;;;;;5042241;28;20463;-69
2022/08/05 15:06:39;;;;;;;2.70;2.50;;;21.60;99.90;;;;;;5027717;28;20466;-69
2022/08/05 15:09:38;;;;;;;2.80;2.60;;;21.80;99.90;;;;;;5017588;28;20482;-68
2022/08/05 15:12:42;;;;;;;2.97;2.67;;;21.80;99.90;;;;;;5034497;28;20848;-68
2022/08/05 15:15:47;;;;;;;2.60;2.40;;;21.90;99.90;;;;;;5022367;28;20443;-69
2022/08/05 15:18:43;;;;;;;3.00;2.40;;;21.90;99.90;;;;;;5037082;28;20538;-68
2022/08/05 15:21:34;;;;;;;2.27;2.07;;;21.90;99.90;;;;;;5034213;28;20459;-68
2022/08/05 15:24:22;;;;;;;3.20;2.43;;;21.90;99.90;;;;;;5021146;28;20446;-68
2022/08/05 15:27:11;;;;;;;2.90;2.60;;;21.80;99.90;;;;;;5040756;28;20450;-68
2022/08/05 15:30:02;;;;;;;2.73;2.53;;;21.70;99.90;;;;;;5026637;28;20478;-68